sensor_id;sensor_type;location;lat;lon;timestamp;temperature;humidity
12849;DHT22;6493;50.928;7.172;2022-10-31T00:00:15;11.40;54.50
12849;DHT22;6493;50.928;7.172;2022-10-31T00:05:18;11.30;54.50
12849;DHT22;6493;50.928;7.172;2022-10-31T00:10:22;11.30;54.60
12849;DHT22;6493;50.928;7.172;2022-10-31T00:15:27;11.20;54.60
12849;DHT22;6493;50.928;7.172;2022-10-31T00:20:30;11.20;54.70
12849;DHT22;6493;50.928;7.172;2022-10-31T00:25:34;11.10;54.70
12849;DHT22;6493;50.928;7.172;2022-10-31T00:30:39;11.10;54.70
12849;DHT22;6493;50.928;7.172;2022-10-31T00:35:42;11.10;54.80
12849;DHT22;6493;50.928;7.172;2022-10-31T00:40:46;11.00;54.80
12849;DHT22;6493;50.928;7.172;2022-10-31T00:45:50;11.00;54.80
12849;DHT22;6493;50.928;7.172;2022-10-31T00:50:53;10.90;54.80
12849;DHT22;6493;50.928;7.172;2022-10-31T00:55:57;10.90;54.80
12849;DHT22;6493;50.928;7.172;2022-10-31T01:01:02;10.80;55.00
12849;DHT22;6493;50.928;7.172;2022-10-31T01:06:08;10.80;55.20
12849;DHT22;6493;50.928;7.172;2022-10-31T01:11:13;10.70;55.10
12849;DHT22;6493;50.928;7.172;2022-10-31T01:16:19;10.80;55.20
12849;DHT22;6493;50.928;7.172;2022-10-31T01:21:26;10.80;55.20
12849;DHT22;6493;50.928;7.172;2022-10-31T01:26:33;10.70;55.10
12849;DHT22;6493;50.928;7.172;2022-10-31T01:31:38;10.70;55.10
12849;DHT22;6493;50.928;7.172;2022-10-31T01:36:42;10.80;55.40
12849;DHT22;6493;50.928;7.172;2022-10-31T01:41:49;10.70;55.30
12849;DHT22;6493;50.928;7.172;2022-10-31T01:46:58;10.70;55.40
12849;DHT22;6493;50.928;7.172;2022-10-31T01:52:06;10.60;55.50
12849;DHT22;6493;50.928;7.172;2022-10-31T01:57:12;10.60;55.50
12849;DHT22;6493;50.928;7.172;2022-10-31T02:02:18;10.60;55.50
12849;DHT22;6493;50.928;7.172;2022-10-31T02:07:26;10.50;55.50
12849;DHT22;6493;50.928;7.172;2022-10-31T02:12:33;10.50;55.60
12849;DHT22;6493;50.928;7.172;2022-10-31T02:17:40;10.50;55.60
12849;DHT22;6493;50.928;7.172;2022-10-31T02:23:08;10.40;55.60
12849;DHT22;6493;50.928;7.172;2022-10-31T02:28:34;10.30;55.90
12849;DHT22;6493;50.928;7.172;2022-10-31T02:33:45;10.30;55.90
12849;DHT22;6493;50.928;7.172;2022-10-31T02:38:56;10.20;55.80
12849;DHT22;6493;50.928;7.172;2022-10-31T02:44:17;10.20;55.90
12849;DHT22;6493;50.928;7.172;2022-10-31T02:49:27;10.20;56.00
12849;DHT22;6493;50.928;7.172;2022-10-31T02:54:32;10.10;56.00
12849;DHT22;6493;50.928;7.172;2022-10-31T02:59:39;10.10;55.90
12849;DHT22;6493;50.928;7.172;2022-10-31T03:05:00;10.10;56.10
12849;DHT22;6493;50.928;7.172;2022-10-31T03:10:13;10.10;56.30
12849;DHT22;6493;50.928;7.172;2022-10-31T03:15:22;10.10;56.20
12849;DHT22;6493;50.928;7.172;2022-10-31T03:20:33;10.10;56.20
12849;DHT22;6493;50.928;7.172;2022-10-31T03:25:37;10.10;56.30
12849;DHT22;6493;50.928;7.172;2022-10-31T03:30:44;10.00;56.70
12849;DHT22;6493;50.928;7.172;2022-10-31T03:35:51;10.00;56.20
12849;DHT22;6493;50.928;7.172;2022-10-31T03:40:58;10.00;56.30
12849;DHT22;6493;50.928;7.172;2022-10-31T03:46:03;10.00;56.40
12849;DHT22;6493;50.928;7.172;2022-10-31T03:51:12;9.90;56.30
12849;DHT22;6493;50.928;7.172;2022-10-31T03:56:21;9.90;56.40
12849;DHT22;6493;50.928;7.172;2022-10-31T04:01:26;9.80;56.40
12849;DHT22;6493;50.928;7.172;2022-10-31T04:06:34;9.80;56.40
12849;DHT22;6493;50.928;7.172;2022-10-31T04:11:43;9.70;56.60
12849;DHT22;6493;50.928;7.172;2022-10-31T04:17:18;9.60;56.50
12849;DHT22;6493;50.928;7.172;2022-10-31T04:22:24;9.60;56.50
12849;DHT22;6493;50.928;7.172;2022-10-31T04:27:27;9.50;57.00
12849;DHT22;6493;50.928;7.172;2022-10-31T04:32:31;9.40;56.40
12849;DHT22;6493;50.928;7.172;2022-10-31T04:37:35;9.40;56.60
12849;DHT22;6493;50.928;7.172;2022-10-31T04:42:39;9.30;56.60
12849;DHT22;6493;50.928;7.172;2022-10-31T04:47:42;9.30;56.60
12849;DHT22;6493;50.928;7.172;2022-10-31T04:52:46;9.30;56.70
12849;DHT22;6493;50.928;7.172;2022-10-31T04:57:54;9.30;56.80
12849;DHT22;6493;50.928;7.172;2022-10-31T05:02:59;9.20;56.80
12849;DHT22;6493;50.928;7.172;2022-10-31T05:08:05;9.10;56.90
12849;DHT22;6493;50.928;7.172;2022-10-31T05:13:08;9.10;57.10
12849;DHT22;6493;50.928;7.172;2022-10-31T05:18:17;9.00;56.90
12849;DHT22;6493;50.928;7.172;2022-10-31T05:23:54;9.00;57.10
12849;DHT22;6493;50.928;7.172;2022-10-31T05:28:59;9.00;57.10
12849;DHT22;6493;50.928;7.172;2022-10-31T05:34:03;9.00;57.10
12849;DHT22;6493;50.928;7.172;2022-10-31T05:39:27;9.00;57.20
12849;DHT22;6493;50.928;7.172;2022-10-31T05:44:35;9.00;57.20
12849;DHT22;6493;50.928;7.172;2022-10-31T05:49:53;9.00;57.20
12849;DHT22;6493;50.928;7.172;2022-10-31T05:55:16;9.00;57.20
12849;DHT22;6493;50.928;7.172;2022-10-31T06:00:36;9.00;57.20
12849;DHT22;6493;50.928;7.172;2022-10-31T06:05:42;9.00;57.20
12849;DHT22;6493;50.928;7.172;2022-10-31T06:10:53;9.00;57.80
12849;DHT22;6493;50.928;7.172;2022-10-31T06:16:16;8.90;57.30
12849;DHT22;6493;50.928;7.172;2022-10-31T06:21:20;8.90;57.30
12849;DHT22;6493;50.928;7.172;2022-10-31T06:26:26;8.90;57.40
12849;DHT22;6493;50.928;7.172;2022-10-31T06:31:30;8.90;57.60
12849;DHT22;6493;50.928;7.172;2022-10-31T06:36:33;8.90;58.20
12849;DHT22;6493;50.928;7.172;2022-10-31T06:41:39;8.80;57.70
12849;DHT22;6493;50.928;7.172;2022-10-31T06:46:46;8.80;57.70
12849;DHT22;6493;50.928;7.172;2022-10-31T06:52:18;8.80;57.90
12849;DHT22;6493;50.928;7.172;2022-10-31T06:57:23;8.80;57.90
12849;DHT22;6493;50.928;7.172;2022-10-31T07:02:26;8.90;58.40
12849;DHT22;6493;50.928;7.172;2022-10-31T07:07:30;8.90;58.50
12849;DHT22;6493;50.928;7.172;2022-10-31T07:12:35;8.90;58.60
12849;DHT22;6493;50.928;7.172;2022-10-31T07:17:38;9.00;59.00
12849;DHT22;6493;50.928;7.172;2022-10-31T07:22:44;9.00;59.00
12849;DHT22;6493;50.928;7.172;2022-10-31T07:27:53;9.00;59.00
12849;DHT22;6493;50.928;7.172;2022-10-31T07:32:56;9.10;59.20
12849;DHT22;6493;50.928;7.172;2022-10-31T07:38:17;9.10;58.90
12849;DHT22;6493;50.928;7.172;2022-10-31T07:43:22;9.20;59.00
12849;DHT22;6493;50.928;7.172;2022-10-31T07:48:45;9.20;59.20
12849;DHT22;6493;50.928;7.172;2022-10-31T07:54:07;9.30;59.20
12849;DHT22;6493;50.928;7.172;2022-10-31T07:59:13;9.40;60.10
12849;DHT22;6493;50.928;7.172;2022-10-31T08:04:16;9.60;59.70
12849;DHT22;6493;50.928;7.172;2022-10-31T08:09:48;9.80;59.70
12849;DHT22;6493;50.928;7.172;2022-10-31T08:15:00;10.00;59.80
12849;DHT22;6493;50.928;7.172;2022-10-31T08:20:05;10.20;60.00
12849;DHT22;6493;50.928;7.172;2022-10-31T08:25:15;10.40;60.00
12849;DHT22;6493;50.928;7.172;2022-10-31T08:30:22;10.70;59.80
12849;DHT22;6493;50.928;7.172;2022-10-31T08:35:45;10.90;59.80
12849;DHT22;6493;50.928;7.172;2022-10-31T08:41:22;11.00;59.60
12849;DHT22;6493;50.928;7.172;2022-10-31T08:46:27;11.20;59.70
12849;DHT22;6493;50.928;7.172;2022-10-31T08:51:31;11.20;59.50
12849;DHT22;6493;50.928;7.172;2022-10-31T08:56:35;11.30;59.40
12849;DHT22;6493;50.928;7.172;2022-10-31T09:01:49;11.20;59.20
12849;DHT22;6493;50.928;7.172;2022-10-31T09:06:53;11.20;59.10
12849;DHT22;6493;50.928;7.172;2022-10-31T09:12:16;11.20;59.10
12849;DHT22;6493;50.928;7.172;2022-10-31T09:17:23;11.10;59.10
12849;DHT22;6493;50.928;7.172;2022-10-31T09:23:05;11.00;59.40
12849;DHT22;6493;50.928;7.172;2022-10-31T09:28:13;11.10;59.60
12849;DHT22;6493;50.928;7.172;2022-10-31T09:33:21;11.10;59.60
12849;DHT22;6493;50.928;7.172;2022-10-31T09:38:40;11.20;59.70
12849;DHT22;6493;50.928;7.172;2022-10-31T09:43:48;11.30;60.00
12849;DHT22;6493;50.928;7.172;2022-10-31T09:49:09;11.50;60.90
12849;DHT22;6493;50.928;7.172;2022-10-31T09:54:29;11.70;61.50
12849;DHT22;6493;50.928;7.172;2022-10-31T09:59:35;12.10;61.70
12849;DHT22;6493;50.928;7.172;2022-10-31T10:04:45;12.40;62.10
12849;DHT22;6493;50.928;7.172;2022-10-31T10:09:53;12.80;62.20
12849;DHT22;6493;50.928;7.172;2022-10-31T10:15:43;13.20;61.80
12849;DHT22;6493;50.928;7.172;2022-10-31T10:21:04;13.50;61.30
12849;DHT22;6493;50.928;7.172;2022-10-31T10:26:16;13.80;60.60
12849;DHT22;6493;50.928;7.172;2022-10-31T10:31:24;14.00;60.40
12849;DHT22;6493;50.928;7.172;2022-10-31T10:36:33;14.10;60.20
12849;DHT22;6493;50.928;7.172;2022-10-31T10:41:43;14.20;59.80
12849;DHT22;6493;50.928;7.172;2022-10-31T10:46:51;14.30;59.50
12849;DHT22;6493;50.928;7.172;2022-10-31T10:52:31;14.30;59.40
12849;DHT22;6493;50.928;7.172;2022-10-31T10:57:55;14.30;59.30
12849;DHT22;6493;50.928;7.172;2022-10-31T11:02:59;14.20;59.20
12849;DHT22;6493;50.928;7.172;2022-10-31T11:08:04;14.20;59.30
12849;DHT22;6493;50.928;7.172;2022-10-31T11:13:20;14.20;59.30
12849;DHT22;6493;50.928;7.172;2022-10-31T11:18:26;14.20;59.30
12849;DHT22;6493;50.928;7.172;2022-10-31T11:23:32;14.30;59.50
12849;DHT22;6493;50.928;7.172;2022-10-31T11:28:36;14.30;59.40
12849;DHT22;6493;50.928;7.172;2022-10-31T11:33:45;14.40;59.70
12849;DHT22;6493;50.928;7.172;2022-10-31T11:38:51;14.50;59.60
12849;DHT22;6493;50.928;7.172;2022-10-31T11:43:57;14.50;59.10
12849;DHT22;6493;50.928;7.172;2022-10-31T11:49:01;14.60;58.90
12849;DHT22;6493;50.928;7.172;2022-10-31T11:54:20;14.60;59.10
12849;DHT22;6493;50.928;7.172;2022-10-31T11:59:27;14.60;59.20
12849;DHT22;6493;50.928;7.172;2022-10-31T12:04:39;14.70;59.30
12849;DHT22;6493;50.928;7.172;2022-10-31T12:09:46;14.80;59.30
12849;DHT22;6493;50.928;7.172;2022-10-31T12:14:57;14.80;58.40
12849;DHT22;6493;50.928;7.172;2022-10-31T12:20:11;14.80;58.50
12849;DHT22;6493;50.928;7.172;2022-10-31T12:25:31;14.80;58.40
12849;DHT22;6493;50.928;7.172;2022-10-31T12:30:46;14.80;58.40
12849;DHT22;6493;50.928;7.172;2022-10-31T12:35:58;14.90;58.50
12849;DHT22;6493;50.928;7.172;2022-10-31T12:41:18;14.90;58.30
12849;DHT22;6493;50.928;7.172;2022-10-31T12:46:31;14.90;58.20
12849;DHT22;6493;50.928;7.172;2022-10-31T12:51:41;15.00;57.90
12849;DHT22;6493;50.928;7.172;2022-10-31T12:56:52;15.00;58.50
12849;DHT22;6493;50.928;7.172;2022-10-31T13:02:02;15.10;57.50
12849;DHT22;6493;50.928;7.172;2022-10-31T13:07:11;15.10;57.50
12849;DHT22;6493;50.928;7.172;2022-10-31T13:12:19;15.10;57.40
12849;DHT22;6493;50.928;7.172;2022-10-31T13:17:28;15.20;57.50
12849;DHT22;6493;50.928;7.172;2022-10-31T13:22:33;15.20;57.10
12849;DHT22;6493;50.928;7.172;2022-10-31T13:27:45;15.20;57.30
12849;DHT22;6493;50.928;7.172;2022-10-31T13:32:53;15.10;57.20
12849;DHT22;6493;50.928;7.172;2022-10-31T13:38:09;15.10;57.40
12849;DHT22;6493;50.928;7.172;2022-10-31T13:43:22;15.20;57.60
12849;DHT22;6493;50.928;7.172;2022-10-31T13:48:45;15.20;57.50
12849;DHT22;6493;50.928;7.172;2022-10-31T13:53:58;15.20;57.30
12849;DHT22;6493;50.928;7.172;2022-10-31T13:59:23;15.30;57.50
12849;DHT22;6493;50.928;7.172;2022-10-31T14:04:32;15.30;57.20
12849;DHT22;6493;50.928;7.172;2022-10-31T14:09:53;15.20;57.30
12849;DHT22;6493;50.928;7.172;2022-10-31T14:15:00;15.20;57.20
12849;DHT22;6493;50.928;7.172;2022-10-31T14:20:36;15.20;57.10
12849;DHT22;6493;50.928;7.172;2022-10-31T14:25:40;15.10;57.30
12849;DHT22;6493;50.928;7.172;2022-10-31T14:30:51;15.10;57.20
12849;DHT22;6493;50.928;7.172;2022-10-31T14:36:00;15.00;57.20
12849;DHT22;6493;50.928;7.172;2022-10-31T14:41:18;15.00;57.30
12849;DHT22;6493;50.928;7.172;2022-10-31T14:46:32;15.00;57.20
12849;DHT22;6493;50.928;7.172;2022-10-31T14:51:39;14.90;57.10
12849;DHT22;6493;50.928;7.172;2022-10-31T14:56:51;14.90;57.10
12849;DHT22;6493;50.928;7.172;2022-10-31T15:01:59;14.90;56.60
12849;DHT22;6493;50.928;7.172;2022-10-31T15:07:10;14.90;56.40
12849;DHT22;6493;50.928;7.172;2022-10-31T15:12:24;14.80;56.30
12849;DHT22;6493;50.928;7.172;2022-10-31T15:17:29;14.90;56.50
12849;DHT22;6493;50.928;7.172;2022-10-31T15:22:32;14.90;56.50
12849;DHT22;6493;50.928;7.172;2022-10-31T15:27:35;14.90;55.70
12849;DHT22;6493;50.928;7.172;2022-10-31T15:32:44;14.80;55.80
12849;DHT22;6493;50.928;7.172;2022-10-31T15:37:59;14.80;55.00
12849;DHT22;6493;50.928;7.172;2022-10-31T15:43:04;14.80;55.60
12849;DHT22;6493;50.928;7.172;2022-10-31T15:48:17;14.80;55.60
12849;DHT22;6493;50.928;7.172;2022-10-31T15:53:24;14.80;55.20
12849;DHT22;6493;50.928;7.172;2022-10-31T15:58:28;14.70;55.20
12849;DHT22;6493;50.928;7.172;2022-10-31T16:03:34;14.60;54.90
12849;DHT22;6493;50.928;7.172;2022-10-31T16:08:45;14.50;54.90
12849;DHT22;6493;50.928;7.172;2022-10-31T16:13:54;14.50;54.80
12849;DHT22;6493;50.928;7.172;2022-10-31T16:19:01;14.40;54.90
12849;DHT22;6493;50.928;7.172;2022-10-31T16:24:15;14.30;54.80
12849;DHT22;6493;50.928;7.172;2022-10-31T16:29:26;14.30;55.10
12849;DHT22;6493;50.928;7.172;2022-10-31T16:34:31;14.20;55.00
12849;DHT22;6493;50.928;7.172;2022-10-31T16:39:34;14.20;55.10
12849;DHT22;6493;50.928;7.172;2022-10-31T16:44:37;14.10;55.10
12849;DHT22;6493;50.928;7.172;2022-10-31T16:49:43;14.00;55.10
12849;DHT22;6493;50.928;7.172;2022-10-31T16:54:46;14.00;55.30
12849;DHT22;6493;50.928;7.172;2022-10-31T16:59:52;13.90;55.20
12849;DHT22;6493;50.928;7.172;2022-10-31T17:04:57;13.90;55.30
12849;DHT22;6493;50.928;7.172;2022-10-31T17:10:01;13.90;55.40
12849;DHT22;6493;50.928;7.172;2022-10-31T17:15:05;14.00;55.50
12849;DHT22;6493;50.928;7.172;2022-10-31T17:20:17;14.00;55.60
12849;DHT22;6493;50.928;7.172;2022-10-31T17:25:22;14.00;55.60
12849;DHT22;6493;50.928;7.172;2022-10-31T17:30:26;13.90;55.60
12849;DHT22;6493;50.928;7.172;2022-10-31T17:35:31;13.90;55.80
12849;DHT22;6493;50.928;7.172;2022-10-31T17:40:36;13.80;55.80
12849;DHT22;6493;50.928;7.172;2022-10-31T17:45:40;13.80;55.90
12849;DHT22;6493;50.928;7.172;2022-10-31T17:50:45;13.80;56.00
12849;DHT22;6493;50.928;7.172;2022-10-31T17:55:48;13.70;55.90
12849;DHT22;6493;50.928;7.172;2022-10-31T18:00:51;13.70;55.90
12849;DHT22;6493;50.928;7.172;2022-10-31T18:05:57;13.70;56.00
12849;DHT22;6493;50.928;7.172;2022-10-31T18:11:04;13.60;56.00
12849;DHT22;6493;50.928;7.172;2022-10-31T18:16:11;13.60;56.00
12849;DHT22;6493;50.928;7.172;2022-10-31T18:21:16;13.60;56.00
12849;DHT22;6493;50.928;7.172;2022-10-31T18:26:19;13.50;56.00
12849;DHT22;6493;50.928;7.172;2022-10-31T18:31:22;13.40;56.00
12849;DHT22;6493;50.928;7.172;2022-10-31T18:36:27;13.30;56.00
12849;DHT22;6493;50.928;7.172;2022-10-31T18:41:30;13.30;56.00
12849;DHT22;6493;50.928;7.172;2022-10-31T18:46:34;13.30;56.10
12849;DHT22;6493;50.928;7.172;2022-10-31T18:51:39;13.30;56.20
12849;DHT22;6493;50.928;7.172;2022-10-31T18:56:42;13.20;56.20
12849;DHT22;6493;50.928;7.172;2022-10-31T19:01:45;13.20;56.20
12849;DHT22;6493;50.928;7.172;2022-10-31T19:06:50;13.20;56.30
12849;DHT22;6493;50.928;7.172;2022-10-31T19:11:53;13.10;56.30
12849;DHT22;6493;50.928;7.172;2022-10-31T19:16:57;13.10;56.40
12849;DHT22;6493;50.928;7.172;2022-10-31T19:22:04;13.00;56.30
12849;DHT22;6493;50.928;7.172;2022-10-31T19:27:09;13.00;56.50
12849;DHT22;6493;50.928;7.172;2022-10-31T19:32:12;13.00;56.60
12849;DHT22;6493;50.928;7.172;2022-10-31T19:37:17;13.00;56.70
12849;DHT22;6493;50.928;7.172;2022-10-31T19:42:20;12.90;56.60
12849;DHT22;6493;50.928;7.172;2022-10-31T19:47:25;12.90;56.50
12849;DHT22;6493;50.928;7.172;2022-10-31T19:52:32;12.90;56.60
12849;DHT22;6493;50.928;7.172;2022-10-31T19:57:35;12.80;56.70
12849;DHT22;6493;50.928;7.172;2022-10-31T20:02:59;12.80;56.70
12849;DHT22;6493;50.928;7.172;2022-10-31T20:08:04;12.80;56.80
12849;DHT22;6493;50.928;7.172;2022-10-31T20:13:07;12.70;56.70
12849;DHT22;6493;50.928;7.172;2022-10-31T20:18:11;12.70;56.70
12849;DHT22;6493;50.928;7.172;2022-10-31T20:23:16;12.70;56.70
12849;DHT22;6493;50.928;7.172;2022-10-31T20:28:19;12.60;56.60
12849;DHT22;6493;50.928;7.172;2022-10-31T20:33:22;12.60;56.60
12849;DHT22;6493;50.928;7.172;2022-10-31T20:38:27;12.60;56.60
12849;DHT22;6493;50.928;7.172;2022-10-31T20:43:31;12.60;56.60
12849;DHT22;6493;50.928;7.172;2022-10-31T20:48:35;12.50;56.50
12849;DHT22;6493;50.928;7.172;2022-10-31T20:53:40;12.50;56.50
12849;DHT22;6493;50.928;7.172;2022-10-31T20:58:44;12.60;56.60
12849;DHT22;6493;50.928;7.172;2022-10-31T21:03:48;12.50;56.50
12849;DHT22;6493;50.928;7.172;2022-10-31T21:08:53;12.50;56.60
12849;DHT22;6493;50.928;7.172;2022-10-31T21:14:00;12.50;56.50
12849;DHT22;6493;50.928;7.172;2022-10-31T21:19:05;12.50;56.50
12849;DHT22;6493;50.928;7.172;2022-10-31T21:24:12;12.40;56.50
12849;DHT22;6493;50.928;7.172;2022-10-31T21:29:16;12.40;56.70
12849;DHT22;6493;50.928;7.172;2022-10-31T21:34:20;12.40;56.70
12849;DHT22;6493;50.928;7.172;2022-10-31T21:39:35;12.30;56.70
12849;DHT22;6493;50.928;7.172;2022-10-31T21:44:40;12.30;56.70
12849;DHT22;6493;50.928;7.172;2022-10-31T21:49:43;12.30;56.80
12849;DHT22;6493;50.928;7.172;2022-10-31T21:54:48;12.20;56.80
12849;DHT22;6493;50.928;7.172;2022-10-31T21:59:51;12.20;56.80
12849;DHT22;6493;50.928;7.172;2022-10-31T22:04:54;12.20;56.80
12849;DHT22;6493;50.928;7.172;2022-10-31T22:09:58;12.20;56.90
12849;DHT22;6493;50.928;7.172;2022-10-31T22:15:02;12.20;56.90
12849;DHT22;6493;50.928;7.172;2022-10-31T22:20:06;12.20;56.90
12849;DHT22;6493;50.928;7.172;2022-10-31T22:25:11;12.30;57.00
12849;DHT22;6493;50.928;7.172;2022-10-31T22:30:14;12.30;57.00
12849;DHT22;6493;50.928;7.172;2022-10-31T22:35:17;12.30;56.90
12849;DHT22;6493;50.928;7.172;2022-10-31T22:40:22;12.30;57.00
12849;DHT22;6493;50.928;7.172;2022-10-31T22:45:25;12.30;57.00
12849;DHT22;6493;50.928;7.172;2022-10-31T22:50:28;12.30;57.00
12849;DHT22;6493;50.928;7.172;2022-10-31T22:55:35;12.30;56.90
12849;DHT22;6493;50.928;7.172;2022-10-31T23:00:39;12.20;57.00
12849;DHT22;6493;50.928;7.172;2022-10-31T23:05:42;12.30;57.10
12849;DHT22;6493;50.928;7.172;2022-10-31T23:10:49;12.30;57.10
12849;DHT22;6493;50.928;7.172;2022-10-31T23:15:53;12.30;57.00
12849;DHT22;6493;50.928;7.172;2022-10-31T23:20:56;12.40;57.10
12849;DHT22;6493;50.928;7.172;2022-10-31T23:26:00;12.40;57.10
12849;DHT22;6493;50.928;7.172;2022-10-31T23:31:21;12.40;57.00
12849;DHT22;6493;50.928;7.172;2022-10-31T23:36:25;12.40;57.10
12849;DHT22;6493;50.928;7.172;2022-10-31T23:41:29;12.50;57.10
12849;DHT22;6493;50.928;7.172;2022-10-31T23:46:32;12.40;57.10
12849;DHT22;6493;50.928;7.172;2022-10-31T23:51:35;12.50;57.10
12849;DHT22;6493;50.928;7.172;2022-10-31T23:56:41;12.60;57.20
